Time;durP1;ratioP1;P1;durP2;ratioP2;P2;SDS_P1;SDS_P2;PMS_P1;PMS_P2;Temp;Humidity;BMP_temperature;BMP_pressure;BME280_temperature;BME280_humidity;BME280_pressure;Samples;Min_cycle;Max_cycle;Signal;HPM_P1;HPM_P2
2022/08/06 00:01:06;;;;;;;3.50;2.77;;;;;;;12.89;79.73;101152.25;5041894;28;20478;-80
2022/08/06 00:03:32;;;;;;;4.87;2.87;;;;;;;12.89;79.80;101154.94;5058627;28;20448;-80
2022/08/06 00:06:01;;;;;;;3.10;2.57;;;;;;;12.91;79.30;101157.50;5049633;28;20482;-80
2022/08/06 00:08:28;;;;;;;5.00;2.90;;;;;;;12.94;79.08;101158.06;5056226;28;20452;-80
2022/08/06 00:10:54;;;;;;;8.30;2.83;;;;;;;12.97;78.41;101162.34;5060900;28;20497;-80
2022/08/06 00:13:21;;;;;;;2.43;2.23;;;;;;;13.02;78.45;101160.09;5057864;28;20469;-81
2022/08/06 00:15:48;;;;;;;2.53;2.33;;;;;;;12.98;78.40;101166.72;5043102;28;21029;-80
2022/08/06 00:18:14;;;;;;;5.00;2.40;;;;;;;13.00;78.34;101168.28;5052261;28;20452;-80
2022/08/06 00:20:41;;;;;;;3.33;3.00;;;;;;;13.00;78.45;101165.59;5056645;28;20481;-82
2022/08/06 00:23:09;;;;;;;3.10;2.70;;;;;;;12.99;78.64;101169.25;5044312;28;20953;-83
2022/08/06 00:25:36;;;;;;;2.70;2.50;;;;;;;12.94;78.61;101162.59;5044276;28;20533;-83
2022/08/06 00:28:03;;;;;;;3.70;2.50;;;;;;;12.85;78.86;101168.78;5045162;28;20484;-82
2022/08/06 00:30:30;;;;;;;2.60;2.40;;;;;;;12.80;78.90;101171.84;5043970;28;20469;-82
2022/08/06 00:32:57;;;;;;;5.50;3.57;;;;;;;12.77;79.27;101172.94;5062806;28;20483;-82
2022/08/06 00:35:24;;;;;;;3.50;2.40;;;;;;;12.70;79.47;101179.84;5046391;28;20481;-82
2022/08/06 00:37:51;;;;;;;3.77;2.13;;;;;;;12.75;79.76;101179.44;5051717;28;20472;-82
2022/08/06 00:40:19;;;;;;;3.17;2.50;;;;;;;12.74;79.68;101181.28;5048084;28;20452;-82
2022/08/06 00:42:46;;;;;;;2.60;2.40;;;;;;;12.71;79.74;101181.53;5058090;28;20525;-82
2022/08/06 00:45:13;;;;;;;2.50;2.30;;;;;;;12.65;79.71;101192.78;5045051;28;20451;-82
2022/08/06 00:47:39;;;;;;;2.80;2.37;;;;;;;12.61;79.79;101186.00;5053699;28;20453;-80
2022/08/06 00:50:07;;;;;;;2.60;2.40;;;;;;;12.56;79.82;101185.53;5046229;28;20484;-79
2022/08/06 00:52:33;;;;;;;6.30;2.93;;;;;;;12.63;79.51;101198.28;5053499;28;20457;-79
2022/08/06 00:55:00;;;;;;;3.87;2.37;;;;;;;12.60;79.47;101197.69;5059806;28;20445;-80
2022/08/06 00:57:28;;;;;;;2.83;2.13;;;;;;;12.65;79.42;101191.94;5050259;28;20517;-81
2022/08/06 00:59:55;;;;;;;2.47;2.27;;;;;;;12.56;79.23;101201.63;5049617;28;20453;-80
2022/08/06 01:02:21;;;;;;;4.40;2.47;;;;;;;12.60;79.04;101198.56;5055414;28;20504;-81
2022/08/06 01:04:48;;;;;;;3.40;2.30;;;;;;;12.58;79.04;101207.72;5056579;28;20954;-80
2022/08/06 01:07:15;;;;;;;2.27;2.07;;;;;;;12.57;79.27;101217.59;5047670;28;20504;-80
2022/08/06 01:09:41;;;;;;;2.17;1.97;;;;;;;12.60;79.34;101214.66;5062305;28;20445;-80
2022/08/06 01:12:08;;;;;;;3.20;2.37;;;;;;;12.65;79.11;101211.56;5059570;28;20504;-80
2022/08/06 01:14:36;;;;;;;5.60;2.83;;;;;;;12.67;78.58;101212.28;5046958;28;20452;-80
2022/08/06 01:17:06;;;;;;;2.37;2.17;;;;;;;12.70;78.58;101214.72;5060914;28;20464;-80
2022/08/06 01:19:48;;;;;;;3.10;2.03;;;;;;;12.71;78.59;101212.91;5057411;28;20495;-80
2022/08/06 01:22:43;;;;;;;2.67;2.20;;;;;;;12.63;78.88;101208.16;5056700;28;21282;-81
2022/08/06 01:25:31;;;;;;;2.60;1.97;;;;;;;12.58;78.91;101208.53;4998913;28;20448;-81
2022/08/06 01:28:02;;;;;;;5.03;2.77;;;;;;;12.57;79.21;101211.38;5047063;28;20474;-81
2022/08/06 01:30:31;;;;;;;3.93;2.30;;;;;;;12.52;80.13;101216.28;5057235;28;20517;-81
2022/08/06 01:33:03;;;;;;;3.37;2.70;;;;;;;12.47;80.33;101218.50;5050585;28;20450;-81
2022/08/06 01:35:35;;;;;;;2.73;2.20;;;;;;;12.42;80.30;101214.38;5056548;28;20461;-81
2022/08/06 01:38:06;;;;;;;4.60;2.47;;;;;;;12.36;80.62;101209.53;5066491;28;20436;-80
2022/08/06 01:40:36;;;;;;;3.40;2.50;;;;;;;12.29;80.59;101205.66;5062193;28;20992;-80
2022/08/06 01:43:06;;;;;;;2.87;2.53;;;;;;;12.18;80.89;101206.53;5066015;28;20477;-80
2022/08/06 01:45:34;;;;;;;13.27;3.20;;;;;;;12.10;81.21;101208.16;5054343;28;20489;-80
2022/08/06 01:48:04;;;;;;;3.13;2.67;;;;;;;12.09;81.41;101209.16;5062117;28;20441;-79
2022/08/06 01:50:33;;;;;;;2.87;2.57;;;;;;;12.04;81.18;101204.16;5050520;28;20942;-79
2022/08/06 01:53:01;;;;;;;4.67;2.83;;;;;;;12.09;80.98;101211.84;5063343;28;20473;-79
2022/08/06 01:55:29;;;;;;;4.23;3.93;;;;;;;12.09;80.67;101204.63;5063392;28;20468;-79
2022/08/06 01:57:59;;;;;;;2.70;2.50;;;;;;;12.12;80.33;101214.25;5064784;28;20444;-79
2022/08/06 02:00:27;;;;;;;3.90;2.90;;;;;;;12.08;80.42;101202.91;5051899;28;20458;-80
2022/08/06 02:02:55;;;;;;;4.20;3.00;;;;;;;12.07;80.58;101201.22;5046594;28;20580;-81
2022/08/06 02:05:22;;;;;;;2.90;2.60;;;;;;;12.01;80.63;101207.97;5045537;28;20453;-80
2022/08/06 02:07:51;;;;;;;3.30;2.60;;;;;;;11.94;80.89;101209.41;5054695;28;20448;-80
2022/08/06 02:10:20;;;;;;;3.40;2.90;;;;;;;11.98;80.93;101210.88;5053702;28;20473;-80
2022/08/06 02:12:47;;;;;;;4.40;3.17;;;;;;;11.98;80.79;101204.69;5053976;28;20476;-80
2022/08/06 02:15:16;;;;;;;3.57;3.10;;;;;;;11.86;80.89;101212.69;5064844;28;20526;-80
2022/08/06 02:17:48;;;;;;;4.30;2.90;;;;;;;11.85;81.31;101216.34;5064650;28;20441;-81
2022/08/06 02:20:16;;;;;;;6.20;3.23;;;;;;;11.83;81.25;101220.97;5065728;28;20445;-80
2022/08/06 02:22:45;;;;;;;7.40;3.00;;;;;;;11.64;82.14;101205.56;5050945;28;20488;-80
2022/08/06 02:25:14;;;;;;;3.33;2.47;;;;;;;11.67;82.47;101226.75;5063091;28;20480;-80
2022/08/06 02:27:43;;;;;;;3.20;2.90;;;;;;;11.66;82.60;101224.19;5060547;28;20465;-81
2022/08/06 02:30:11;;;;;;;3.73;2.77;;;;;;;11.60;82.86;101220.19;5065398;28;20448;-80
2022/08/06 02:32:38;;;;;;;3.83;2.60;;;;;;;11.62;82.55;101228.09;5066099;28;20472;-80
2022/08/06 02:35:07;;;;;;;6.90;2.93;;;;;;;11.56;82.84;101225.88;5045852;28;20481;-80
2022/08/06 02:37:37;;;;;;;4.37;3.20;;;;;;;11.46;83.38;101225.78;5050612;28;20464;-80
2022/08/06 02:40:09;;;;;;;6.07;3.77;;;;;;;11.29;84.33;101227.97;5049200;28;20444;-80
2022/08/06 02:42:45;;;;;;;3.83;3.43;;;;;;;11.29;84.38;101227.97;5058113;28;20511;-80
2022/08/06 02:45:16;;;;;;;3.40;3.10;;;;;;;11.23;84.54;101225.78;5046444;28;20449;-80
2022/08/06 02:47:48;;;;;;;4.00;3.70;;;;;;;11.17;85.05;101231.63;5053141;28;20484;-80
2022/08/06 02:50:18;;;;;;;3.47;3.17;;;;;;;11.24;84.62;101234.66;5064575;28;20456;-80
2022/08/06 02:52:47;;;;;;;5.70;3.53;;;;;;;11.28;84.39;101239.66;5047988;28;20445;-80
2022/08/06 02:55:16;;;;;;;3.60;3.20;;;;;;;11.36;84.13;101236.38;5048972;28;20548;-80
2022/08/06 02:57:48;;;;;;;4.70;3.50;;;;;;;11.37;84.04;101237.22;5061582;28;20453;-80
2022/08/06 03:00:16;;;;;;;3.40;3.10;;;;;;;11.34;83.73;101234.81;5053347;28;20950;-81
2022/08/06 03:02:45;;;;;;;3.73;2.90;;;;;;;11.35;83.91;101237.34;5059574;28;20508;-81
2022/08/06 03:05:16;;;;;;;4.80;3.37;;;;;;;11.38;83.62;101245.13;5054773;28;20457;-81
2022/08/06 03:07:43;;;;;;;3.03;2.83;;;;;;;11.39;83.74;101244.16;5045663;28;20438;-81
2022/08/06 03:10:11;;;;;;;4.03;2.80;;;;;;;11.42;83.34;101243.06;5044974;28;20938;-81
2022/08/06 03:12:38;;;;;;;5.30;2.70;;;;;;;11.39;83.07;101248.69;5045090;28;20934;-82
2022/08/06 03:15:06;;;;;;;4.03;2.73;;;;;;;11.41;83.23;101249.41;5052832;28;20453;-82
2022/08/06 03:17:34;;;;;;;2.67;2.47;;;;;;;11.46;83.32;101256.09;5063415;28;20999;-82
2022/08/06 03:20:01;;;;;;;2.93;2.63;;;;;;;11.48;83.30;101258.66;5063714;28;20441;-82
2022/08/06 03:22:30;;;;;;;5.60;2.80;;;;;;;11.48;83.29;101256.81;5061166;28;20513;-81
2022/08/06 03:24:57;;;;;;;5.00;2.93;;;;;;;11.48;83.36;101264.00;5052030;28;20448;-81
2022/08/06 03:27:24;;;;;;;3.53;2.70;;;;;;;11.41;83.31;101257.44;5052902;28;20588;-81
2022/08/06 03:29:51;;;;;;;4.60;2.67;;;;;;;11.42;83.75;101269.84;5049616;28;20508;-81
2022/08/06 03:32:18;;;;;;;3.40;3.10;;;;;;;11.42;83.79;101277.88;5054929;28;20477;-81
2022/08/06 03:34:45;;;;;;;7.03;3.00;;;;;;;11.41;83.66;101284.22;5063564;28;20495;-81
2022/08/06 03:37:13;;;;;;;6.40;2.70;;;;;;;11.34;83.81;101278.50;5061721;28;20480;-81
2022/08/06 03:39:43;;;;;;;5.50;2.60;;;;;;;11.29;83.67;101281.50;5045945;28;20490;-81
2022/08/06 03:42:10;;;;;;;3.50;2.60;;;;;;;11.29;83.88;101283.34;5044345;28;20482;-81
2022/08/06 03:44:36;;;;;;;3.10;2.57;;;;;;;11.30;84.08;101285.03;5044492;28;20442;-82
2022/08/06 03:47:06;;;;;;;3.03;2.73;;;;;;;11.28;83.98;101287.84;5044253;28;20482;-82
2022/08/06 03:49:37;;;;;;;3.10;2.40;;;;;;;11.28;84.26;101290.53;5061874;28;20476;-82
2022/08/06 03:52:04;;;;;;;3.57;2.90;;;;;;;11.24;84.11;101296.25;5044571;28;20470;-82
2022/08/06 03:54:35;;;;;;;2.60;2.40;;;;;;;11.22;84.04;101298.19;5059160;28;20489;-82
2022/08/06 03:57:06;;;;;;;4.63;3.03;;;;;;;11.24;83.83;101297.09;5056058;28;20509;-82
2022/08/06 03:59:33;;;;;;;2.70;2.40;;;;;;;11.24;83.44;101301.59;5045173;28;20486;-82
2022/08/06 04:02:01;;;;;;;4.83;2.50;;;;;;;11.37;83.74;101310.38;5063456;28;20485;-82
2022/08/06 04:04:28;;;;;;;4.20;3.00;;;;;;;11.84;82.61;101311.13;5051711;28;20438;-81
2022/08/06 04:06:56;;;;;;;3.50;2.87;;;;;;;12.43;80.75;101309.09;5050460;28;20507;-81
2022/08/06 04:09:24;;;;;;;5.30;3.30;;;;;;;12.69;79.03;101300.69;5061474;28;20472;-81
2022/08/06 04:11:51;;;;;;;3.10;2.77;;;;;;;13.07;77.05;101302.84;5043754;28;20505;-81
2022/08/06 04:14:19;;;;;;;2.63;2.43;;;;;;;13.82;73.83;101308.91;5043939;28;20464;-81
2022/08/06 04:16:47;;;;;;;4.33;2.70;;;;;;;14.62;70.58;101311.66;5042971;28;21182;-81
2022/08/06 04:19:15;;;;;;;4.13;2.43;;;;;;;15.27;66.81;101316.44;5044973;28;20503;-82
2022/08/06 04:21:42;;;;;;;3.40;2.30;;;;;;;15.85;64.66;101323.50;5059503;28;20580;-81
2022/08/06 04:24:08;;;;;;;4.27;1.90;;;;;;;16.34;62.34;101316.00;5046091;28;20442;-82
2022/08/06 04:26:36;;;;;;;2.70;1.50;;;;;;;17.06;60.17;101310.59;5059259;28;20532;-81
2022/08/06 04:29:03;;;;;;;2.33;1.20;;;;;;;17.64;57.78;101318.09;5052489;28;21272;-82
2022/08/06 04:31:32;;;;;;;1.80;1.50;;;;;;;17.63;56.52;101319.09;5047241;28;20480;-81
2022/08/06 04:33:59;;;;;;;2.17;1.57;;;;;;;18.00;55.15;101320.66;5060960;28;20456;-82
2022/08/06 04:36:26;;;;;;;2.23;1.40;;;;;;;18.41;54.10;101322.63;5062510;28;20473;-82
2022/08/06 04:38:53;;;;;;;1.43;1.33;;;;;;;18.68;53.51;101326.94;5062455;28;20444;-82
2022/08/06 04:41:20;;;;;;;2.60;1.27;;;;;;;19.26;51.91;101330.50;5046602;28;20482;-82
2022/08/06 04:43:47;;;;;;;1.43;1.30;;;;;;;19.17;51.32;101326.94;5043945;28;20513;-82
2022/08/06 04:46:14;;;;;;;2.50;1.20;;;;;;;19.28;50.99;101325.75;5050657;28;20465;-82
2022/08/06 04:48:42;;;;;;;1.10;1.00;;;;;;;19.16;50.76;101338.81;5053675;28;20456;-82
2022/08/06 04:51:09;;;;;;;1.20;1.10;;;;;;;18.46;52.94;101333.81;5052654;28;20477;-82
2022/08/06 04:53:40;;;;;;;3.67;1.47;;;;;;;17.36;55.80;101336.34;5045242;28;20465;-80
2022/08/06 04:56:07;;;;;;;2.80;1.30;;;;;;;16.27;59.09;101339.19;5042460;28;21052;-80
2022/08/06 04:58:34;;;;;;;2.50;1.50;;;;;;;15.07;63.40;101341.53;5055607;28;20543;-80
2022/08/06 05:01:01;;;;;;;2.10;1.70;;;;;;;14.60;65.75;101354.88;5051319;28;20515;-80
2022/08/06 05:03:28;;;;;;;2.10;1.87;;;;;;;14.85;66.59;101350.75;5046178;28;21045;-82
2022/08/06 05:06:02;;;;;;;4.07;1.63;;;;;;;16.17;62.92;101348.19;5042579;28;20477;-82
2022/08/06 05:08:30;;;;;;;5.80;1.60;;;;;;;17.18;58.96;101347.16;5050742;28;20556;-82
2022/08/06 05:11:02;;;;;;;2.67;1.60;;;;;;;17.09;57.90;101340.84;5059686;28;20479;-82
2022/08/06 05:13:31;;;;;;;3.50;2.40;;;;;;;17.05;59.23;101344.03;5060143;28;20453;-82
2022/08/06 05:16:03;;;;;;;1.87;1.60;;;;;;;18.15;56.64;101356.06;5046999;28;20477;-82
2022/08/06 05:18:35;;;;;;;1.47;1.20;;;;;;;19.32;53.09;101350.66;5045815;28;20480;-83
2022/08/06 05:21:03;;;;;;;4.93;1.53;;;;;;;20.67;48.00;101356.97;5052627;28;20496;-82
2022/08/06 05:23:35;;;;;;;2.97;1.27;;;;;;;22.16;43.98;101361.88;5062835;28;20505;-82
2022/08/06 05:26:01;;;;;;;3.73;1.20;;;;;;;22.18;44.39;101360.63;5045064;28;20481;-82
2022/08/06 05:28:28;;;;;;;1.10;0.90;;;;;;;21.50;45.58;101365.34;5046885;28;20485;-79
2022/08/06 05:30:55;;;;;;;2.20;1.27;;;;;;;22.05;43.59;101371.38;5048714;28;20477;-79
2022/08/06 05:33:26;;;;;;;2.13;1.10;;;;;;;23.04;41.99;101373.56;5058621;28;20441;-80
2022/08/06 05:35:53;;;;;;;5.60;2.20;;;;;;;22.85;42.42;101383.25;5052099;28;21828;-80
2022/08/06 05:38:21;;;;;;;2.73;1.20;;;;;;;23.39;41.12;101386.50;5050555;28;20446;-79
2022/08/06 05:40:48;;;;;;;3.67;1.50;;;;;;;22.07;44.05;101380.19;5051155;28;20499;-80
2022/08/06 05:43:15;;;;;;;1.97;1.20;;;;;;;22.51;42.79;101381.19;5049272;28;20512;-81
2022/08/06 05:45:42;;;;;;;2.93;1.50;;;;;;;23.79;40.38;101378.59;5051522;28;20533;-80
2022/08/06 05:48:09;;;;;;;2.80;1.40;;;;;;;23.95;40.30;101381.03;5060038;28;20453;-81
2022/08/06 05:50:40;;;;;;;2.30;1.00;;;;;;;24.37;39.22;101381.88;5061456;28;20487;-82
2022/08/06 05:53:10;;;;;;;5.80;2.60;;;;;;;24.51;39.23;101390.97;5062476;28;20445;-81
2022/08/06 05:55:43;;;;;;;3.40;1.33;;;;;;;25.06;37.81;101390.06;5051029;28;20473;-81
2022/08/06 05:58:13;;;;;;;1.93;1.10;;;;;;;23.67;39.88;101386.50;5048247;28;20470;-79
2022/08/06 06:00:42;;;;;;;5.80;1.30;;;;;;;24.38;39.18;101390.91;5049051;28;20469;-80
2022/08/06 06:03:18;;;;;;;5.33;1.50;;;;;;;24.37;39.40;101395.53;5051252;28;20477;-80
2022/08/06 06:05:45;;;;;;;4.40;1.10;;;;;;;25.43;37.96;101404.19;5051597;28;20485;-79
2022/08/06 06:08:11;;;;;;;4.07;2.03;;;;;;;25.18;38.27;101400.16;5051062;28;20842;-78
2022/08/06 06:10:40;;;;;;;3.40;1.27;;;;;;;25.44;37.13;101403.16;5049451;28;20522;-80
2022/08/06 06:13:08;;;;;;;5.27;1.50;;;;;;;25.23;37.91;101404.19;5054828;28;20479;-80
2022/08/06 06:15:40;;;;;;;5.30;1.23;;;;;;;25.73;36.93;101407.34;5061733;28;20503;-80
2022/08/06 06:18:12;;;;;;;3.80;1.33;;;;;;;25.45;38.01;101411.16;5062468;28;20468;-83
2022/08/06 06:20:45;;;;;;;3.70;1.13;;;;;;;26.08;36.82;101402.44;5061076;28;20469;-81
2022/08/06 06:23:18;;;;;;;2.33;1.20;;;;;;;26.31;36.52;101412.06;5065658;28;20468;-81
2022/08/06 06:25:53;;;;;;;2.47;1.13;;;;;;;25.05;38.11;101413.84;5054402;28;20592;-79
2022/08/06 06:28:26;;;;;;;3.03;0.93;;;;;;;25.19;38.36;101422.91;5055386;28;20518;-79
2022/08/06 06:30:56;;;;;;;2.77;1.43;;;;;;;26.09;37.05;101423.31;5063156;28;20468;-77
2022/08/06 06:33:26;;;;;;;2.17;0.83;;;;;;;25.88;36.42;101424.38;5062914;28;20465;-78
2022/08/06 06:35:54;;;;;;;3.40;1.10;;;;;;;26.58;34.85;101423.75;5054909;28;20548;-78
2022/08/06 06:38:32;;;;;;;4.13;0.83;;;;;;;26.32;35.39;101416.50;5052879;28;20481;-77
2022/08/06 06:41:04;;;;;;;1.77;0.70;;;;;;;25.47;36.61;101420.00;5048476;28;20480;-78
2022/08/06 06:43:35;;;;;;;1.73;0.83;;;;;;;27.53;33.67;101433.97;5048150;28;20477;-77
2022/08/06 06:46:05;;;;;;;2.60;0.67;;;;;;;28.15;32.02;101433.16;5058523;28;20501;-77
2022/08/06 06:48:36;;;;;;;3.00;0.80;;;;;;;26.61;34.70;101427.94;5064320;28;20464;-76
2022/08/06 06:51:04;;;;;;;3.43;0.97;;;;;;;26.48;34.56;101429.69;5064494;28;20676;-77
2022/08/06 06:53:35;;;;;;;2.40;0.90;;;;;;;27.67;32.77;101436.56;5060168;28;20438;-77
2022/08/06 06:56:04;;;;;;;0.70;0.40;;;;;;;28.12;31.81;101437.22;5044304;28;20485;-77
2022/08/06 06:58:36;;;;;;;1.00;0.60;;;;;;;27.76;31.73;101440.72;5049150;28;20453;-77
2022/08/06 07:01:05;;;;;;;1.67;0.80;;;;;;;27.30;32.17;101428.22;5058257;28;20484;-77
2022/08/06 07:03:33;;;;;;;1.83;0.77;;;;;;;28.16;31.77;101440.34;5059157;28;20501;-77
2022/08/06 07:06:00;;;;;;;2.33;0.80;;;;;;;27.93;31.86;101447.34;5058213;28;20501;-77
2022/08/06 07:08:29;;;;;;;2.10;0.63;;;;;;;28.35;32.18;101450.25;5045124;28;20438;-77
2022/08/06 07:10:56;;;;;;;1.53;0.50;;;;;;;29.15;29.30;101442.84;5047714;28;20480;-77
2022/08/06 07:13:25;;;;;;;1.27;0.60;;;;;;;24.21;36.12;101453.25;5064366;28;20441;-76
2022/08/06 07:15:53;;;;;;;1.50;0.60;;;;;;;24.04;38.58;101453.59;5062551;28;20559;-77
2022/08/06 07:18:21;;;;;;;1.63;0.50;;;;;;;24.19;37.79;101442.53;5053297;28;20445;-77
2022/08/06 07:20:48;;;;;;;2.63;0.63;;;;;;;25.35;36.26;101452.63;5053754;28;20484;-78
2022/08/06 07:23:16;;;;;;;2.30;0.90;;;;;;;26.85;32.96;101446.41;5055874;28;20480;-77
2022/08/06 07:25:45;;;;;;;1.67;0.50;;;;;;;28.07;31.61;101453.56;5051539;28;20481;-78
2022/08/06 07:28:13;;;;;;;1.63;0.53;;;;;;;28.07;30.59;101453.56;5052548;28;20488;-76
2022/08/06 07:30:43;;;;;;;3.53;0.70;;;;;;;27.24;31.14;101454.66;5055781;28;20453;-78
2022/08/06 07:33:11;;;;;;;1.77;0.57;;;;;;;27.04;31.05;101454.75;5053934;28;20467;-78
2022/08/06 07:35:39;;;;;;;1.43;0.60;;;;;;;28.24;30.31;101459.25;5052645;28;20565;-78
2022/08/06 07:38:07;;;;;;;1.53;0.40;;;;;;;27.86;30.22;101463.00;5053603;28;20592;-77
2022/08/06 07:40:38;;;;;;;1.83;0.40;;;;;;;29.22;29.77;101462.06;5054417;28;20519;-77
2022/08/06 07:43:09;;;;;;;3.33;0.63;;;;;;;28.01;29.54;101457.19;5054109;28;20900;-75
2022/08/06 07:45:36;;;;;;;1.87;0.53;;;;;;;28.24;30.24;101455.69;5051803;28;20516;-75
2022/08/06 07:48:07;;;;;;;1.37;0.50;;;;;;;27.33;32.92;101458.00;5055396;28;20457;-76
2022/08/06 07:50:34;;;;;;;1.73;0.40;;;;;;;28.76;28.56;101464.38;5054017;28;20493;-76
2022/08/06 07:53:01;;;;;;;1.40;0.73;;;;;;;27.15;31.29;101455.97;5050295;28;20438;-76
2022/08/06 07:55:28;;;;;;;1.80;0.40;;;;;;;24.82;33.73;101468.91;5052386;28;20474;-75
2022/08/06 07:57:57;;;;;;;4.70;0.40;;;;;;;27.90;29.01;101463.44;5055055;28;20460;-76
2022/08/06 08:00:25;;;;;;;0.90;0.50;;;;;;;28.34;29.76;101465.06;5056609;28;20476;-76
2022/08/06 08:08:23;;;;;;;1.87;0.60;;;;;;;27.36;30.56;101474.88;5062864;28;20443;-76
2022/08/06 08:10:50;;;;;;;1.70;0.53;;;;;;;27.05;30.64;101475.69;5063045;28;21013;-76
2022/08/06 08:13:18;;;;;;;1.17;0.30;;;;;;;28.46;28.34;101475.31;5049222;28;21090;-76
2022/08/06 08:15:45;;;;;;;2.40;0.47;;;;;;;28.23;28.38;101467.75;5042235;28;20850;-76
2022/08/06 08:18:12;;;;;;;0.90;0.50;;;;;;;27.20;30.60;101473.47;5056415;28;20502;-75
2022/08/06 08:20:41;;;;;;;1.17;0.47;;;;;;;28.63;28.21;101472.81;5062196;28;20476;-76
2022/08/06 08:23:11;;;;;;;2.07;0.60;;;;;;;26.79;29.80;101471.19;5049308;28;20474;-75
2022/08/06 08:25:38;;;;;;;1.23;0.40;;;;;;;29.06;26.52;101480.91;5048431;28;20473;-76
2022/08/06 08:28:06;;;;;;;1.37;0.70;;;;;;;27.95;27.60;101472.69;5062576;28;20519;-75
2022/08/06 08:30:32;;;;;;;1.53;0.73;;;;;;;27.22;29.05;101468.59;5060238;28;20489;-77
2022/08/06 08:32:59;;;;;;;0.70;0.27;;;;;;;28.64;27.93;101468.97;5056260;28;20459;-76
2022/08/06 08:35:26;;;;;;;1.67;0.60;;;;;;;29.15;26.51;101470.41;5056955;28;20996;-73
2022/08/06 08:37:54;;;;;;;1.63;0.30;;;;;;;29.54;25.35;101483.81;5055314;28;20489;-72
2022/08/06 08:40:21;;;;;;;2.23;0.50;;;;;;;28.04;26.95;101484.25;5061124;28;20611;-75
2022/08/06 08:42:53;;;;;;;2.90;0.47;;;;;;;26.76;27.89;101477.94;5056613;28;20446;-73
2022/08/06 08:45:20;;;;;;;1.80;0.47;;;;;;;27.49;26.73;101475.81;5048569;28;20442;-73
2022/08/06 08:47:51;;;;;;;1.70;0.47;;;;;;;27.29;27.15;101471.34;5043899;28;20459;-74
2022/08/06 08:50:20;;;;;;;1.47;0.30;;;;;;;28.04;25.86;101481.50;5058628;28;20487;-73
2022/08/06 08:52:49;;;;;;;0.70;0.27;;;;;;;26.26;27.25;101470.25;5042379;28;20440;-74
2022/08/06 08:55:21;;;;;;;1.57;0.40;;;;;;;27.14;27.08;101473.50;5051950;28;20511;-74
2022/08/06 08:57:48;;;;;;;1.47;0.30;;;;;;;25.81;28.56;101474.75;5055028;28;20926;-73
2022/08/06 09:00:15;;;;;;;1.83;0.50;;;;;;;27.97;25.75;101465.06;5058422;28;20465;-73
2022/08/06 09:02:42;;;;;;;1.33;0.50;;;;;;;29.04;25.48;101471.19;5059315;28;20475;-74
2022/08/06 09:05:10;;;;;;;2.27;0.43;;;;;;;29.43;25.91;101472.53;5060394;28;20442;-74
2022/08/06 09:07:38;;;;;;;1.03;0.47;;;;;;;27.51;27.13;101477.28;5061570;28;20442;-74
2022/08/06 09:10:07;;;;;;;1.40;0.37;;;;;;;26.11;28.98;101486.16;5061221;28;20457;-75
2022/08/06 09:12:35;;;;;;;2.83;0.37;;;;;;;25.76;31.36;101472.63;5061858;28;20464;-74
2022/08/06 09:15:02;;;;;;;2.67;0.50;;;;;;;24.74;32.30;101469.09;5044220;28;20458;-74
2022/08/06 09:17:30;;;;;;;1.37;0.50;;;;;;;25.55;30.61;101480.03;5060552;28;20480;-74
2022/08/06 09:19:56;;;;;;;0.80;0.30;;;;;;;29.02;27.48;101467.84;5060140;28;20471;-75
2022/08/06 09:22:23;;;;;;;0.80;0.40;;;;;;;29.90;24.19;101473.69;5060528;28;20496;-74
2022/08/06 09:24:50;;;;;;;1.00;0.40;;;;;;;29.78;23.15;101476.44;5053298;28;20470;-74
2022/08/06 09:27:17;;;;;;;2.20;0.30;;;;;;;29.30;23.75;101486.50;5041258;28;20537;-74
2022/08/06 09:29:53;;;;;;;3.70;0.60;;;;;;;29.55;24.27;101479.97;5040548;28;20513;-74
2022/08/06 09:32:42;;;;;;;2.30;0.43;;;;;;;29.34;23.76;101478.59;5041769;28;20482;-74
2022/08/06 09:35:20;;;;;;;0.70;0.30;;;;;;;28.90;24.17;101481.53;5045829;28;20470;-73
2022/08/06 09:37:47;;;;;;;2.47;0.50;;;;;;;29.82;24.35;101485.88;5060990;28;20460;-74
2022/08/06 09:40:15;;;;;;;1.80;0.30;;;;;;;27.39;24.06;101482.66;5060748;28;20442;-74
2022/08/06 09:42:43;;;;;;;0.73;0.37;;;;;;;30.12;23.89;101480.25;5053073;28;20448;-74
2022/08/06 09:45:13;;;;;;;1.67;0.27;;;;;;;30.90;21.00;101475.28;5057615;28;20514;-74
2022/08/06 09:47:40;;;;;;;1.00;0.37;;;;;;;28.53;25.29;101479.66;5048960;28;20447;-74
2022/08/06 09:50:08;;;;;;;2.90;0.57;;;;;;;28.42;24.97;101476.81;5041056;28;20434;-73
2022/08/06 09:52:34;;;;;;;2.60;0.60;;;;;;;26.19;26.63;101474.94;5056499;28;20477;-74
2022/08/06 09:55:01;;;;;;;1.00;0.30;;;;;;;27.38;28.80;101469.97;5047780;28;20464;-74
2022/08/06 09:57:42;;;;;;;2.33;0.33;;;;;;;27.13;24.60;101478.13;5063455;28;20492;-74
2022/08/06 10:00:12;;;;;;;0.80;0.30;;;;;;;28.22;26.08;101479.81;5064204;28;20483;-73
2022/08/06 10:02:39;;;;;;;1.93;0.70;;;;;;;28.05;27.18;101482.31;5065158;28;20459;-74
2022/08/06 10:05:10;;;;;;;1.57;0.57;;;;;;;28.19;25.38;101483.84;5065726;28;20479;-73
2022/08/06 10:07:36;;;;;;;2.30;0.40;;;;;;;25.70;27.94;101488.03;5062278;28;21281;-73
2022/08/06 10:10:04;;;;;;;1.50;0.60;;;;;;;27.26;26.76;101488.22;5057768;28;21365;-74
2022/08/06 10:12:31;;;;;;;0.80;0.30;;;;;;;26.47;26.20;101479.28;5061327;28;20476;-74
2022/08/06 10:14:57;;;;;;;1.40;0.30;;;;;;;27.34;25.73;101482.50;5051893;28;21083;-74
2022/08/06 10:17:26;;;;;;;1.37;0.30;;;;;;;28.06;25.73;101486.75;5047358;28;20485;-75
2022/08/06 10:20:06;;;;;;;2.80;0.80;;;;;;;26.01;27.08;101494.78;5055124;28;20450;-74
2022/08/06 10:22:33;;;;;;;2.87;0.33;;;;;;;28.26;25.72;101495.66;5052317;28;20453;-75
2022/08/06 10:25:02;;;;;;;2.97;0.23;;;;;;;27.92;24.77;101478.63;5056706;28;20464;-75
2022/08/06 10:27:31;;;;;;;1.43;0.43;;;;;;;25.18;29.37;101481.44;5055184;28;20507;-75
2022/08/06 10:30:01;;;;;;;0.80;0.30;;;;;;;26.18;29.34;101483.38;5054552;28;20480;-74
2022/08/06 10:32:32;;;;;;;0.93;0.40;;;;;;;26.03;28.55;101480.88;5064694;28;20488;-73
2022/08/06 10:35:01;;;;;;;2.33;0.60;;;;;;;26.40;30.64;101481.19;5061197;28;20448;-74
2022/08/06 10:37:28;;;;;;;2.10;0.30;;;;;;;24.85;31.98;101486.81;5061223;28;20533;-75
2022/08/06 10:40:00;;;;;;;1.30;0.33;;;;;;;24.34;32.48;101488.88;5061767;28;20818;-75
2022/08/06 10:42:27;;;;;;;0.60;0.20;;;;;;;25.03;31.52;101494.44;5060847;28;20487;-77
2022/08/06 10:44:55;;;;;;;1.23;0.30;;;;;;;23.61;31.87;101483.69;5054945;28;20496;-78
2022/08/06 10:47:22;;;;;;;1.43;0.40;;;;;;;23.08;33.70;101494.09;5060833;28;20491;-79
2022/08/06 10:49:50;;;;;;;1.23;0.37;;;;;;;23.17;32.75;101489.34;5057201;28;20457;-79
2022/08/06 10:52:18;;;;;;;2.20;0.40;;;;;;;24.58;30.62;101489.41;5056341;28;20515;-78
2022/08/06 10:54:45;;;;;;;1.53;0.60;;;;;;;26.10;29.51;101488.03;5059891;28;20446;-78
2022/08/06 10:57:13;;;;;;;1.87;0.77;;;;;;;26.95;27.53;101472.56;5044078;28;20517;-78
2022/08/06 10:59:41;;;;;;;0.93;0.40;;;;;;;27.08;28.03;101466.13;5050607;28;20445;-78
2022/08/06 11:02:16;;;;;;;0.80;0.30;;;;;;;27.28;26.58;101472.38;5058610;28;20843;-78
2022/08/06 11:04:53;;;;;;;1.67;0.47;;;;;;;26.46;27.02;101469.38;5062383;28;20479;-78
2022/08/06 11:08:08;;;;;;;1.10;0.37;;;;;;;24.94;30.64;101475.47;5049594;28;21027;-78
2022/08/06 11:11:04;;;;;;;1.67;0.30;;;;;;;24.80;31.08;101476.47;5047921;28;20477;-77
2022/08/06 11:13:34;;;;;;;0.93;0.30;;;;;;;24.03;32.34;101479.22;5047485;28;20946;-77
2022/08/06 11:16:01;;;;;;;1.83;0.47;;;;;;;23.53;32.34;101478.38;5051697;28;20475;-77
2022/08/06 11:18:27;;;;;;;3.37;0.50;;;;;;;23.67;34.12;101482.06;5062259;28;20482;-78
2022/08/06 11:20:59;;;;;;;2.43;0.30;;;;;;;24.48;31.48;101470.66;5063277;28;20467;-78
2022/08/06 11:23:31;;;;;;;1.03;0.30;;;;;;;26.55;27.50;101468.06;5063655;28;20451;-78
2022/08/06 11:25:59;;;;;;;0.93;0.27;;;;;;;27.87;25.69;101470.19;5063323;28;20472;-78
2022/08/06 11:29:02;;;;;;;2.93;0.30;;;;;;;28.58;24.42;101464.41;5062928;28;20472;-79
2022/08/06 11:31:48;;;;;;;1.83;0.33;;;;;;;26.19;26.81;101465.88;5045376;28;20481;-78
2022/08/06 11:34:16;;;;;;;0.93;0.40;;;;;;;27.13;27.13;101471.81;5064417;28;20473;-80
2022/08/06 11:36:49;;;;;;;0.67;0.27;;;;;;;25.94;28.72;101472.03;5056986;28;20488;-77
2022/08/06 11:39:19;;;;;;;1.30;0.50;;;;;;;25.23;30.40;101475.34;5044094;28;20440;-77